createdAt,value
2023-03-06T00:01:19.251Z,14.00
2023-03-06T00:04:08.469Z,13.15
2023-03-06T00:06:56.178Z,13.32
2023-03-06T00:09:44.178Z,11.93
2023-03-06T00:12:32.299Z,13.00
2023-03-06T00:15:20.477Z,12.75
2023-03-06T00:18:10.160Z,10.70
2023-03-06T00:20:58.092Z,10.32
2023-03-06T00:23:46.151Z,10.07
2023-03-06T00:26:35.630Z,11.25
2023-03-06T00:29:23.580Z,14.50
2023-03-06T00:32:11.679Z,13.05
2023-03-06T00:35:01.121Z,17.70
2023-03-06T00:37:49.079Z,14.27
2023-03-06T00:40:36.905Z,16.73
2023-03-06T00:43:25.043Z,12.45
2023-03-06T00:46:12.670Z,16.50
2023-03-06T00:49:00.707Z,10.95
2023-03-06T00:51:50.074Z,14.60
2023-03-06T00:54:38.015Z,10.95
2023-03-06T00:57:26.573Z,10.90
2023-03-06T01:00:16.334Z,12.57
2023-03-06T01:03:03.947Z,9.25
2023-03-06T01:05:51.938Z,10.95
2023-03-06T01:08:41.166Z,11.95
2023-03-06T01:11:31.339Z,10.20
2023-03-06T01:14:19.346Z,12.23
2023-03-06T01:17:07.658Z,9.25
2023-03-06T01:19:55.437Z,9.82
2023-03-06T01:22:43.372Z,11.10
2023-03-06T01:25:32.688Z,10.27
2023-03-06T01:28:20.561Z,11.98
2023-03-06T01:31:09.761Z,11.07
2023-03-06T01:33:58.102Z,10.82
2023-03-06T01:36:46.078Z,10.50
2023-03-06T01:39:34.070Z,13.38
2023-03-06T01:42:23.221Z,10.02
2023-03-06T01:45:50.572Z,11.70
2023-03-06T01:48:40.475Z,10.48
2023-03-06T01:51:33.324Z,12.50
2023-03-06T01:54:25.430Z,16.45
2023-03-06T01:57:15.926Z,18.23
2023-03-06T02:00:08.116Z,16.98
2023-03-06T02:02:59.768Z,16.52
2023-03-06T02:05:48.633Z,11.32
2023-03-06T02:08:36.779Z,16.25
2023-03-06T02:11:26.036Z,13.50
2023-03-06T02:14:16.033Z,15.32
2023-03-06T02:17:04.270Z,12.02
2023-03-06T02:20:02.726Z,15.07
2023-03-06T02:22:59.070Z,16.80
2023-03-06T02:25:50.839Z,9.65
2023-03-06T02:28:39.878Z,9.80
2023-03-06T02:31:31.014Z,10.35
2023-03-06T02:34:51.894Z,12.48
2023-03-06T02:37:39.605Z,13.90
2023-03-06T02:40:28.079Z,10.27
2023-03-06T02:43:21.478Z,9.75
2023-03-06T02:48:57.175Z,10.98
2023-03-06T02:51:44.883Z,11.05
2023-03-06T02:54:32.966Z,10.60
2023-03-06T02:57:21.020Z,9.82
2023-03-06T03:00:12.532Z,8.85
2023-03-06T03:03:00.499Z,11.73
2023-03-06T03:05:48.222Z,14.38
2023-03-06T03:08:36.552Z,18.58
2023-03-06T03:11:24.567Z,12.43
2023-03-06T03:14:12.602Z,13.30
2023-03-06T03:17:02.340Z,21.10
2023-03-06T03:19:50.578Z,16.20
2023-03-06T03:22:38.366Z,13.45
2023-03-06T03:25:27.846Z,10.80
2023-03-06T03:28:15.301Z,11.25
2023-03-06T03:31:09.185Z,12.25
2023-03-06T03:33:59.717Z,9.93
2023-03-06T03:36:47.695Z,11.45
2023-03-06T03:39:35.899Z,11.45
2023-03-06T03:42:24.161Z,14.85
2023-03-06T03:45:12.517Z,12.65
2023-03-06T03:48:00.219Z,8.55
2023-03-06T03:50:49.696Z,11.32
2023-03-06T03:53:37.432Z,10.27
2023-03-06T03:56:25.505Z,10.45
2023-03-06T03:59:13.496Z,12.50
2023-03-06T04:02:04.661Z,10.23
2023-03-06T04:04:52.631Z,11.38
2023-03-06T04:07:42.404Z,9.68
2023-03-06T04:10:30.393Z,13.60
2023-03-06T04:13:20.213Z,10.90
2023-03-06T04:16:08.563Z,12.02
2023-03-06T04:18:56.049Z,11.05
2023-03-06T04:21:44.032Z,11.27
2023-03-06T04:24:33.440Z,10.48
2023-03-06T04:27:21.256Z,7.63
2023-03-06T04:30:10.687Z,9.13
2023-03-06T04:33:02.605Z,11.23
2023-03-06T04:35:50.569Z,11.20
2023-03-06T04:38:38.508Z,11.25
2023-03-06T04:41:27.838Z,10.05
2023-03-06T04:44:15.920Z,10.50
2023-03-06T04:47:03.763Z,13.05
2023-03-06T04:49:51.685Z,20.05
2023-03-06T04:52:40.461Z,21.58
2023-03-06T04:55:28.478Z,23.77
2023-03-06T04:58:18.107Z,16.83
2023-03-06T05:01:06.056Z,15.48
2023-03-06T05:03:53.651Z,19.65
2023-03-06T05:06:41.764Z,16.90
2023-03-06T05:09:29.475Z,13.38
2023-03-06T05:12:17.423Z,21.58
2023-03-06T05:15:08.535Z,12.25
2023-03-06T05:17:56.501Z,20.45
2023-03-06T05:20:44.714Z,14.13
2023-03-06T05:23:36.171Z,16.17
2023-03-06T05:26:23.966Z,18.30
2023-03-06T05:29:11.995Z,17.13
2023-03-06T05:32:01.790Z,17.52
2023-03-06T05:34:49.869Z,20.83
2023-03-06T05:37:38.019Z,19.75
2023-03-06T05:40:26.354Z,18.95
2023-03-06T05:43:16.147Z,18.13
2023-03-06T05:46:05.162Z,17.75
2023-03-06T05:48:57.430Z,22.42
2023-03-06T05:51:45.397Z,14.10
2023-03-06T05:54:33.700Z,12.70
2023-03-06T05:57:22.226Z,12.30
2023-03-06T06:00:12.701Z,12.75
2023-03-06T06:03:02.791Z,14.98
2023-03-06T06:05:52.841Z,14.23
2023-03-06T06:08:41.730Z,19.92
2023-03-06T06:11:29.769Z,15.02
2023-03-06T06:14:17.763Z,18.30
2023-03-06T06:17:05.813Z,23.45
2023-03-06T06:19:53.785Z,23.98
2023-03-06T06:22:43.330Z,30.42
2023-03-06T06:25:31.264Z,21.08
2023-03-06T06:28:18.957Z,19.38
2023-03-06T06:31:12.165Z,29.30
2023-03-06T06:34:00.026Z,26.45
2023-03-06T06:36:49.480Z,24.90
2023-03-06T06:39:39.824Z,27.20
2023-03-06T06:42:33.164Z,25.92
2023-03-06T06:45:22.770Z,25.27
2023-03-06T06:48:11.322Z,23.45
2023-03-06T06:51:01.948Z,22.80
2023-03-06T06:53:50.062Z,30.85
2023-03-06T06:56:39.742Z,22.40
2023-03-06T06:59:27.678Z,21.48
2023-03-06T07:02:16.545Z,21.50
2023-03-06T07:05:05.643Z,32.13
2023-03-06T07:07:55.480Z,22.00
2023-03-06T07:10:43.524Z,26.48
2023-03-06T07:13:35.012Z,20.83
2023-03-06T07:16:24.245Z,19.35
2023-03-06T07:19:18.176Z,30.58
2023-03-06T07:22:09.499Z,22.88
2023-03-06T07:24:57.371Z,22.38
2023-03-06T07:27:52.609Z,22.50
2023-03-06T07:30:44.171Z,24.58
2023-03-06T07:33:31.783Z,28.45
2023-03-06T07:36:22.196Z,20.30
2023-03-06T07:39:10.492Z,33.90
2023-03-06T07:41:58.914Z,31.27
2023-03-06T07:44:46.599Z,26.35
2023-03-06T07:47:35.736Z,32.95
2023-03-06T07:50:23.709Z,25.60
2023-03-06T07:53:11.711Z,21.17
2023-03-06T07:55:59.846Z,22.02
2023-03-06T07:58:48.394Z,21.52
2023-03-06T08:01:39.284Z,22.85
2023-03-06T08:04:29.839Z,27.55
2023-03-06T08:07:17.912Z,27.35
2023-03-06T08:10:06.571Z,25.02
2023-03-06T08:12:54.271Z,23.83
2023-03-06T08:15:42.398Z,25.92
2023-03-06T08:18:30.877Z,21.13
2023-03-06T08:21:23.559Z,24.38
2023-03-06T08:24:13.140Z,25.55
2023-03-06T08:27:01.758Z,21.70
2023-03-06T08:29:49.822Z,25.05
2023-03-06T08:32:38.604Z,24.02
2023-03-06T08:35:26.741Z,21.65
2023-03-06T08:38:16.490Z,20.08
2023-03-06T08:41:04.657Z,23.63
2023-03-06T08:43:52.995Z,21.17
2023-03-06T08:46:41.462Z,20.48
2023-03-06T08:49:29.593Z,24.73
2023-03-06T08:52:17.870Z,22.08
2023-03-06T08:55:08.191Z,20.60
2023-03-06T08:57:56.710Z,18.58
2023-03-06T09:00:44.765Z,18.02
2023-03-06T09:03:32.565Z,16.20
2023-03-06T09:06:20.593Z,20.02
2023-03-06T09:09:09.413Z,18.00
2023-03-06T09:11:58.519Z,16.90
2023-03-06T09:14:46.625Z,17.50
2023-03-06T09:17:34.728Z,22.58
2023-03-06T09:20:23.113Z,21.15
2023-03-06T09:23:11.306Z,16.67
2023-03-06T09:26:00.618Z,14.88
2023-03-06T09:29:23.946Z,15.40
2023-03-06T09:32:12.303Z,17.20
2023-03-06T09:35:00.501Z,16.92
2023-03-06T09:37:48.588Z,18.90
2023-03-06T09:40:52.528Z,15.93
2023-03-06T09:43:43.223Z,16.00
2023-03-06T09:46:42.690Z,18.17
2023-03-06T09:49:44.863Z,17.88
2023-03-06T09:52:38.564Z,19.25
2023-03-06T09:55:30.039Z,18.45
2023-03-06T09:58:21.910Z,15.85
2023-03-06T10:01:19.679Z,16.20
2023-03-06T10:04:17.315Z,18.83
2023-03-06T10:07:14.148Z,20.85
2023-03-06T10:10:05.269Z,18.45
2023-03-06T10:13:02.879Z,19.50
2023-03-06T10:15:53.984Z,39.70
2023-03-06T10:18:41.978Z,24.70
2023-03-06T10:21:46.846Z,28.25
2023-03-06T10:24:48.514Z,20.98
2023-03-06T10:27:46.945Z,26.02
2023-03-06T10:30:41.666Z,17.70
2023-03-06T10:33:42.087Z,15.40
2023-03-06T10:36:30.957Z,17.85
2023-03-06T10:39:22.504Z,16.85
2023-03-06T10:42:11.138Z,18.65
2023-03-06T10:45:18.267Z,17.85
2023-03-06T10:48:18.518Z,14.98
2023-03-06T10:51:20.238Z,13.93
2023-03-06T10:54:21.040Z,17.58
2023-03-06T10:57:27.024Z,15.40
2023-03-06T11:00:28.150Z,13.40
2023-03-06T11:03:24.652Z,13.88
2023-03-06T11:06:14.593Z,15.10
2023-03-06T11:09:17.886Z,14.50
2023-03-06T11:12:26.927Z,15.45
2023-03-06T11:15:22.150Z,12.23
2023-03-06T11:18:31.029Z,11.35
2023-03-06T11:21:31.044Z,13.90
2023-03-06T11:24:21.772Z,11.23
2023-03-06T11:27:22.566Z,12.48
2023-03-06T11:30:19.557Z,12.50
2023-03-06T11:33:19.939Z,11.90
2023-03-06T11:36:16.132Z,14.07
2023-03-06T11:39:15.488Z,13.75
2023-03-06T11:42:12.810Z,13.32
2023-03-06T11:45:18.909Z,14.63
2023-03-06T11:48:22.752Z,14.00
2023-03-06T11:51:19.320Z,15.45
2023-03-06T11:54:10.645Z,12.90
2023-03-06T11:57:02.772Z,13.20
2023-03-06T12:00:18.577Z,12.55
2023-03-06T12:03:45.751Z,12.55
2023-03-06T12:06:44.804Z,13.02
2023-03-06T12:09:42.890Z,14.30
2023-03-06T12:12:59.843Z,13.25
2023-03-06T12:16:13.503Z,11.02
2023-03-06T12:19:18.221Z,12.88
2023-03-06T12:22:21.710Z,11.10
2023-03-06T12:25:26.912Z,12.15
2023-03-06T12:28:35.112Z,13.88
2023-03-06T12:31:40.512Z,14.30
2023-03-06T12:34:50.335Z,15.05
2023-03-06T12:37:52.766Z,14.15
2023-03-06T12:41:07.734Z,13.63
2023-03-06T12:44:14.752Z,13.73
2023-03-06T12:47:04.998Z,12.98
2023-03-06T12:50:00.264Z,14.75
2023-03-06T12:52:49.362Z,15.20
2023-03-06T12:55:41.987Z,12.38
2023-03-06T12:58:51.059Z,13.77
2023-03-06T13:02:02.049Z,15.80
2023-03-06T13:05:01.949Z,13.82
2023-03-06T13:08:01.223Z,12.15
2023-03-06T13:11:11.238Z,12.63
2023-03-06T13:13:59.341Z,11.70
2023-03-06T13:16:47.132Z,12.70
2023-03-06T13:19:35.012Z,17.92
2023-03-06T13:22:30.957Z,12.60
2023-03-06T13:25:47.666Z,11.68
2023-03-06T13:28:46.220Z,10.20
2023-03-06T13:32:06.790Z,13.30
2023-03-06T13:34:54.756Z,10.05
2023-03-06T13:37:54.847Z,9.93
2023-03-06T13:40:42.596Z,10.77
2023-03-06T13:43:31.958Z,10.00
2023-03-06T13:46:26.039Z,11.85
2023-03-06T13:49:24.097Z,9.82
2023-03-06T13:52:23.951Z,9.95
2023-03-06T13:55:23.547Z,8.85
2023-03-06T13:58:24.238Z,9.73
2023-03-06T14:01:30.098Z,10.75
2023-03-06T14:04:38.738Z,9.90
2023-03-06T14:07:28.940Z,10.68
2023-03-06T14:10:24.210Z,10.68
2023-03-06T14:13:19.360Z,9.05
2023-03-06T14:16:18.316Z,10.93
2023-03-06T14:19:08.541Z,9.88
2023-03-06T14:21:58.556Z,9.18
2023-03-06T14:24:59.694Z,11.68
2023-03-06T14:27:53.587Z,10.18
2023-03-06T14:30:51.213Z,9.98
2023-03-06T14:33:45.059Z,13.10
2023-03-06T14:36:36.595Z,11.32
2023-03-06T14:39:30.690Z,10.48
2023-03-06T14:42:20.625Z,12.90
2023-03-06T14:45:17.110Z,10.32
2023-03-06T14:48:07.237Z,13.05
2023-03-06T14:50:57.568Z,13.13
2023-03-06T14:53:46.941Z,14.82
2023-03-06T14:56:41.260Z,11.63
2023-03-06T14:59:32.193Z,11.68
2023-03-06T15:02:24.518Z,10.65
2023-03-06T15:05:22.192Z,11.02
2023-03-06T15:08:10.660Z,12.85
2023-03-06T15:11:00.788Z,12.57
2023-03-06T15:14:02.527Z,13.85
2023-03-06T15:16:50.694Z,13.95
2023-03-06T15:19:42.512Z,13.50
2023-03-06T15:22:33.483Z,12.40
2023-03-06T15:25:26.772Z,13.77
2023-03-06T15:28:26.991Z,13.35
2023-03-06T15:31:22.699Z,12.50
2023-03-06T15:34:24.371Z,12.73
2023-03-06T15:37:29.135Z,11.50
2023-03-06T15:40:20.109Z,13.35
2023-03-06T15:43:12.873Z,10.57
2023-03-06T15:46:02.264Z,14.20
2023-03-06T15:48:55.204Z,11.65
2023-03-06T15:51:43.156Z,14.60
2023-03-06T15:54:33.093Z,13.63
2023-03-06T15:57:23.750Z,15.05
2023-03-06T16:00:27.363Z,11.23
2023-03-06T16:03:16.376Z,10.70
2023-03-06T16:06:04.570Z,16.83
2023-03-06T16:08:52.709Z,13.10
2023-03-06T16:11:44.929Z,11.85
2023-03-06T16:14:33.052Z,12.10
2023-03-06T16:17:21.267Z,14.10
2023-03-06T16:20:17.452Z,14.13
2023-03-06T16:23:07.976Z,15.57
2023-03-06T16:25:56.042Z,11.77
2023-03-06T16:28:46.416Z,14.18
2023-03-06T16:31:34.376Z,13.32
2023-03-06T16:34:22.446Z,18.42
2023-03-06T16:37:12.372Z,13.45
2023-03-06T16:40:00.314Z,12.45
2023-03-06T16:42:48.047Z,13.55
2023-03-06T16:45:39.424Z,15.45
2023-03-06T16:48:27.222Z,15.70
2023-03-06T16:51:16.642Z,11.98
2023-03-06T16:54:04.809Z,12.20
2023-03-06T16:56:52.532Z,14.52
2023-03-06T16:59:40.508Z,12.95
2023-03-06T17:02:29.713Z,12.70
2023-03-06T17:05:17.901Z,15.00
2023-03-06T17:08:08.553Z,14.50
2023-03-06T17:10:56.727Z,16.23
2023-03-06T17:13:44.695Z,16.13
2023-03-06T17:16:32.343Z,14.88
2023-03-06T17:19:22.004Z,13.38
2023-03-06T17:22:09.881Z,17.92
2023-03-06T17:24:57.973Z,21.20
2023-03-06T17:27:47.717Z,21.83
2023-03-06T17:30:36.616Z,32.88
2023-03-06T17:33:24.486Z,21.48
2023-03-06T17:36:14.322Z,19.23
2023-03-06T17:39:03.979Z,21.60
2023-03-06T17:41:51.890Z,19.42
2023-03-06T17:44:40.134Z,19.27
2023-03-06T17:47:28.071Z,20.05
2023-03-06T17:50:16.092Z,19.23
2023-03-06T17:53:05.259Z,17.27
2023-03-06T17:55:53.163Z,15.65
2023-03-06T17:58:41.392Z,18.75
2023-03-06T18:01:37.985Z,18.45
2023-03-06T18:04:28.266Z,19.75
2023-03-06T18:07:16.888Z,19.15
2023-03-06T18:10:07.264Z,14.73
2023-03-06T18:12:56.500Z,19.75
2023-03-06T18:15:44.611Z,21.10
2023-03-06T18:18:34.728Z,21.80
2023-03-06T18:21:24.042Z,16.08
2023-03-06T18:24:12.496Z,15.07
2023-03-06T18:27:02.138Z,17.45
2023-03-06T18:29:52.109Z,17.00
2023-03-06T18:32:40.594Z,17.95
2023-03-06T18:35:28.591Z,20.13
2023-03-06T18:38:16.446Z,15.55
2023-03-06T18:41:05.448Z,16.00
2023-03-06T18:43:55.681Z,16.92
2023-03-06T18:46:43.433Z,16.83
2023-03-06T18:49:35.223Z,16.63
2023-03-06T18:52:23.009Z,16.30
2023-03-06T18:55:11.779Z,15.60
2023-03-06T18:57:59.733Z,15.00
2023-03-06T19:00:49.848Z,16.05
2023-03-06T19:03:38.054Z,16.23
2023-03-06T19:06:27.840Z,19.15
2023-03-06T19:09:15.882Z,16.27
2023-03-06T19:12:04.686Z,17.85
2023-03-06T19:14:52.631Z,19.23
2023-03-06T19:17:42.158Z,18.85
2023-03-06T19:20:29.900Z,19.20
2023-03-06T19:23:18.236Z,18.88
2023-03-06T19:26:07.452Z,17.55
2023-03-06T19:28:55.587Z,16.27
2023-03-06T19:31:43.720Z,17.52
2023-03-06T19:34:33.103Z,18.23
2023-03-06T19:37:21.060Z,14.32
2023-03-06T19:40:10.631Z,17.63
2023-03-06T19:42:58.321Z,16.08
2023-03-06T19:45:46.708Z,18.83
2023-03-06T19:48:34.937Z,16.67
2023-03-06T19:51:24.158Z,20.38
2023-03-06T19:54:13.046Z,18.83
2023-03-06T19:57:00.899Z,20.63
2023-03-06T19:59:51.933Z,18.20
2023-03-06T20:02:39.880Z,22.70
2023-03-06T20:05:27.973Z,17.88
2023-03-06T20:08:17.215Z,16.80
2023-03-06T20:11:05.108Z,17.65
2023-03-06T20:13:53.623Z,20.50
2023-03-06T20:16:41.373Z,16.90
2023-03-06T20:19:29.482Z,23.58
2023-03-06T20:22:19.111Z,20.50
2023-03-06T20:25:09.043Z,23.92
2023-03-06T20:27:57.067Z,21.38
2023-03-06T20:30:45.543Z,18.13
2023-03-06T20:33:33.508Z,15.82
2023-03-06T20:36:28.007Z,23.25
2023-03-06T20:39:17.431Z,19.67
2023-03-06T20:42:07.089Z,16.77
2023-03-06T20:44:55.063Z,18.65
2023-03-06T20:47:46.870Z,18.70
2023-03-06T20:50:34.673Z,23.63
2023-03-06T20:53:23.015Z,20.13
2023-03-06T20:56:13.847Z,24.13
2023-03-06T20:59:03.664Z,19.00
2023-03-06T21:01:51.597Z,18.90
2023-03-06T21:04:41.075Z,19.67
2023-03-06T21:07:29.015Z,22.50
2023-03-06T21:10:16.969Z,17.27
2023-03-06T21:13:04.870Z,26.73
2023-03-06T21:15:54.273Z,21.25
2023-03-06T21:18:45.614Z,21.05
2023-03-06T21:21:35.755Z,18.60
2023-03-06T21:24:23.725Z,16.73
2023-03-06T21:27:11.487Z,21.55
2023-03-06T21:29:59.587Z,20.55
2023-03-06T21:32:48.850Z,18.60
2023-03-06T21:35:39.047Z,17.60
2023-03-06T21:38:26.730Z,19.50
2023-03-06T21:41:18.556Z,17.30
2023-03-06T21:44:08.058Z,18.20
2023-03-06T21:46:56.063Z,17.85
2023-03-06T21:49:45.326Z,18.77
2023-03-06T21:52:33.020Z,18.40
2023-03-06T21:55:21.803Z,19.27
2023-03-06T21:58:09.880Z,17.35
2023-03-06T22:00:58.309Z,17.85
2023-03-06T22:03:46.499Z,18.40
2023-03-06T22:06:36.163Z,17.63
2023-03-06T22:09:24.122Z,18.17
2023-03-06T22:12:12.273Z,16.20
2023-03-06T22:14:59.976Z,13.95
2023-03-06T22:17:48.641Z,16.27
2023-03-06T22:20:36.672Z,19.23
2023-03-06T22:23:26.040Z,16.05
2023-03-06T22:26:15.394Z,17.85
2023-03-06T22:29:03.385Z,18.13
2023-03-06T22:31:52.008Z,14.63
2023-03-06T22:34:40.070Z,14.80
2023-03-06T22:37:27.949Z,15.93
2023-03-06T22:40:17.661Z,20.92
2023-03-06T22:43:05.402Z,16.10
2023-03-06T22:45:53.690Z,17.45
2023-03-06T22:48:41.666Z,16.10
2023-03-06T22:51:30.511Z,18.95
2023-03-06T22:54:18.390Z,15.93
2023-03-06T22:57:08.614Z,16.42
2023-03-06T22:59:56.756Z,16.13
2023-03-06T23:02:44.939Z,16.60
2023-03-06T23:05:35.929Z,14.75
2023-03-06T23:08:23.812Z,14.75
2023-03-06T23:11:13.549Z,15.55
2023-03-06T23:14:05.377Z,16.58
2023-03-06T23:16:53.291Z,17.75
2023-03-06T23:19:41.326Z,16.70
2023-03-06T23:22:29.467Z,18.48
2023-03-06T23:25:17.406Z,17.63
2023-03-06T23:28:05.678Z,16.77
2023-03-06T23:30:55.010Z,17.38
2023-03-06T23:33:42.766Z,16.13
2023-03-06T23:36:31.752Z,16.10
2023-03-06T23:39:19.491Z,18.08
2023-03-06T23:42:07.462Z,17.63
2023-03-06T23:44:55.144Z,19.17
2023-03-06T23:47:44.577Z,17.17
2023-03-06T23:50:32.889Z,20.67
2023-03-06T23:53:20.617Z,23.05
2023-03-06T23:56:09.625Z,19.23
2023-03-06T23:58:57.763Z,21.08
